sensor_id;sensor_type;location;lat;lon;timestamp;temperature;humidity
61255;DHT22;47128;47.530;8.584;2023-02-28T00:01:06;0.60;97.90
61255;DHT22;47128;47.530;8.584;2023-02-28T00:03:32;0.60;97.10
61255;DHT22;47128;47.530;8.584;2023-02-28T00:06:06;0.60;96.60
61255;DHT22;47128;47.530;8.584;2023-02-28T00:08:32;0.50;98.00
61255;DHT22;47128;47.530;8.584;2023-02-28T00:11:06;0.50;97.50
61255;DHT22;47128;47.530;8.584;2023-02-28T00:13:34;0.60;97.50
61255;DHT22;47128;47.530;8.584;2023-02-28T00:16:01;0.50;98.10
61255;DHT22;47128;47.530;8.584;2023-02-28T00:18:26;0.60;97.80
61255;DHT22;47128;47.530;8.584;2023-02-28T00:20:52;0.50;96.80
61255;DHT22;47128;47.530;8.584;2023-02-28T00:23:17;0.60;97.20
61255;DHT22;47128;47.530;8.584;2023-02-28T00:25:43;0.50;97.90
61255;DHT22;47128;47.530;8.584;2023-02-28T00:28:09;0.50;97.80
61255;DHT22;47128;47.530;8.584;2023-02-28T00:30:34;0.60;97.50
61255;DHT22;47128;47.530;8.584;2023-02-28T00:33:00;0.60;97.80
61255;DHT22;47128;47.530;8.584;2023-02-28T00:35:25;0.60;97.30
61255;DHT22;47128;47.530;8.584;2023-02-28T00:37:51;0.60;97.30
61255;DHT22;47128;47.530;8.584;2023-02-28T00:40:16;0.60;97.80
61255;DHT22;47128;47.530;8.584;2023-02-28T00:42:42;0.60;96.90
61255;DHT22;47128;47.530;8.584;2023-02-28T00:45:07;0.70;97.30
61255;DHT22;47128;47.530;8.584;2023-02-28T00:47:33;0.60;97.40
61255;DHT22;47128;47.530;8.584;2023-02-28T00:49:59;0.60;97.80
61255;DHT22;47128;47.530;8.584;2023-02-28T00:52:24;0.60;97.10
61255;DHT22;47128;47.530;8.584;2023-02-28T00:54:50;0.60;97.00
61255;DHT22;47128;47.530;8.584;2023-02-28T00:57:16;0.60;96.90
61255;DHT22;47128;47.530;8.584;2023-02-28T00:59:42;0.60;97.10
61255;DHT22;47128;47.530;8.584;2023-02-28T01:02:07;0.60;97.30
61255;DHT22;47128;47.530;8.584;2023-02-28T01:04:33;0.60;97.30
61255;DHT22;47128;47.530;8.584;2023-02-28T01:06:59;0.60;97.90
61255;DHT22;47128;47.530;8.584;2023-02-28T01:09:24;0.60;97.80
61255;DHT22;47128;47.530;8.584;2023-02-28T01:11:50;0.70;97.50
61255;DHT22;47128;47.530;8.584;2023-02-28T01:14:16;0.60;97.10
61255;DHT22;47128;47.530;8.584;2023-02-28T01:16:42;0.60;97.90
61255;DHT22;47128;47.530;8.584;2023-02-28T01:19:08;0.60;97.90
61255;DHT22;47128;47.530;8.584;2023-02-28T01:21:33;0.60;97.60
61255;DHT22;47128;47.530;8.584;2023-02-28T01:24:00;0.60;97.50
61255;DHT22;47128;47.530;8.584;2023-02-28T01:26:26;0.60;97.30
61255;DHT22;47128;47.530;8.584;2023-02-28T01:28:51;0.60;97.10
61255;DHT22;47128;47.530;8.584;2023-02-28T01:31:17;0.60;97.70
61255;DHT22;47128;47.530;8.584;2023-02-28T01:33:43;0.70;97.60
61255;DHT22;47128;47.530;8.584;2023-02-28T01:36:13;0.70;97.60
61255;DHT22;47128;47.530;8.584;2023-02-28T01:38:39;0.70;98.00
61255;DHT22;47128;47.530;8.584;2023-02-28T01:41:05;0.70;96.90
61255;DHT22;47128;47.530;8.584;2023-02-28T01:43:53;0.70;97.50
61255;DHT22;47128;47.530;8.584;2023-02-28T01:46:17;0.60;97.40
61255;DHT22;47128;47.530;8.584;2023-02-28T01:48:44;0.60;98.10
61255;DHT22;47128;47.530;8.584;2023-02-28T01:51:13;0.70;97.80
61255;DHT22;47128;47.530;8.584;2023-02-28T01:53:51;0.70;97.00
61255;DHT22;47128;47.530;8.584;2023-02-28T01:56:19;0.70;97.00
61255;DHT22;47128;47.530;8.584;2023-02-28T01:58:49;0.70;97.30
61255;DHT22;47128;47.530;8.584;2023-02-28T02:01:16;0.70;97.70
61255;DHT22;47128;47.530;8.584;2023-02-28T02:03:55;0.70;98.20
61255;DHT22;47128;47.530;8.584;2023-02-28T02:06:26;0.70;98.70
61255;DHT22;47128;47.530;8.584;2023-02-28T02:08:54;0.60;97.70
61255;DHT22;47128;47.530;8.584;2023-02-28T02:11:20;0.70;97.30
61255;DHT22;47128;47.530;8.584;2023-02-28T02:18:43;0.70;98.00
61255;DHT22;47128;47.530;8.584;2023-02-28T02:21:18;0.60;97.10
61255;DHT22;47128;47.530;8.584;2023-02-28T02:34:42;0.60;97.40
61255;DHT22;47128;47.530;8.584;2023-02-28T02:37:15;0.70;97.30
61255;DHT22;47128;47.530;8.584;2023-02-28T02:39:53;0.70;97.40
61255;DHT22;47128;47.530;8.584;2023-02-28T02:42:31;0.70;97.30
61255;DHT22;47128;47.530;8.584;2023-02-28T02:45:00;0.60;96.70
61255;DHT22;47128;47.530;8.584;2023-02-28T02:47:27;0.70;96.90
61255;DHT22;47128;47.530;8.584;2023-02-28T02:49:55;0.60;96.80
61255;DHT22;47128;47.530;8.584;2023-02-28T02:52:22;0.60;96.90
61255;DHT22;47128;47.530;8.584;2023-02-28T02:54:49;0.60;96.90
61255;DHT22;47128;47.530;8.584;2023-02-28T02:57:29;0.60;97.30
61255;DHT22;47128;47.530;8.584;2023-02-28T02:59:55;0.60;97.40
61255;DHT22;47128;47.530;8.584;2023-02-28T03:02:22;0.60;96.90
61255;DHT22;47128;47.530;8.584;2023-02-28T03:04:50;0.60;96.70
61255;DHT22;47128;47.530;8.584;2023-02-28T03:07:17;0.60;97.60
61255;DHT22;47128;47.530;8.584;2023-02-28T03:09:50;0.70;98.00
61255;DHT22;47128;47.530;8.584;2023-02-28T03:12:16;0.60;97.20
61255;DHT22;47128;47.530;8.584;2023-02-28T03:25:35;0.60;97.90
61255;DHT22;47128;47.530;8.584;2023-02-28T03:28:15;0.60;98.60
61255;DHT22;47128;47.530;8.584;2023-02-28T03:30:45;0.60;97.80
61255;DHT22;47128;47.530;8.584;2023-02-28T03:35:39;0.70;98.20
61255;DHT22;47128;47.530;8.584;2023-02-28T03:38:29;0.70;97.90
61255;DHT22;47128;47.530;8.584;2023-02-28T03:40:58;0.60;97.50
61255;DHT22;47128;47.530;8.584;2023-02-28T03:43:29;0.60;97.40
61255;DHT22;47128;47.530;8.584;2023-02-28T03:45:55;0.60;97.20
61255;DHT22;47128;47.530;8.584;2023-02-28T03:51:22;0.60;97.90
61255;DHT22;47128;47.530;8.584;2023-02-28T03:53:52;0.60;97.70
61255;DHT22;47128;47.530;8.584;2023-02-28T03:56:23;0.60;97.90
61255;DHT22;47128;47.530;8.584;2023-02-28T03:59:01;0.60;97.00
61255;DHT22;47128;47.530;8.584;2023-02-28T04:01:30;0.60;97.80
61255;DHT22;47128;47.530;8.584;2023-02-28T04:03:57;0.50;97.60
61255;DHT22;47128;47.530;8.584;2023-02-28T04:06:23;0.50;98.00
61255;DHT22;47128;47.530;8.584;2023-02-28T04:08:49;0.50;97.40
61255;DHT22;47128;47.530;8.584;2023-02-28T04:11:19;0.50;97.70
61255;DHT22;47128;47.530;8.584;2023-02-28T04:13:46;0.50;97.60
61255;DHT22;47128;47.530;8.584;2023-02-28T04:16:11;0.40;97.60
61255;DHT22;47128;47.530;8.584;2023-02-28T04:18:38;0.50;97.60
61255;DHT22;47128;47.530;8.584;2023-02-28T04:21:03;0.40;97.00
61255;DHT22;47128;47.530;8.584;2023-02-28T04:23:30;0.50;97.40
61255;DHT22;47128;47.530;8.584;2023-02-28T04:25:55;0.40;97.70
61255;DHT22;47128;47.530;8.584;2023-02-28T04:28:22;0.50;97.30
61255;DHT22;47128;47.530;8.584;2023-02-28T04:30:47;0.50;97.80
61255;DHT22;47128;47.530;8.584;2023-02-28T04:33:13;0.40;97.50
61255;DHT22;47128;47.530;8.584;2023-02-28T04:35:38;0.50;98.30
61255;DHT22;47128;47.530;8.584;2023-02-28T04:38:04;0.50;97.90
61255;DHT22;47128;47.530;8.584;2023-02-28T04:40:29;0.50;97.10
61255;DHT22;47128;47.530;8.584;2023-02-28T04:42:54;0.50;96.70
61255;DHT22;47128;47.530;8.584;2023-02-28T04:45:20;0.50;96.70
61255;DHT22;47128;47.530;8.584;2023-02-28T04:47:45;0.50;96.70
61255;DHT22;47128;47.530;8.584;2023-02-28T04:50:11;0.50;96.80
61255;DHT22;47128;47.530;8.584;2023-02-28T04:52:36;0.50;97.10
61255;DHT22;47128;47.530;8.584;2023-02-28T04:55:02;0.50;97.00
61255;DHT22;47128;47.530;8.584;2023-02-28T04:57:27;0.50;97.60
61255;DHT22;47128;47.530;8.584;2023-02-28T04:59:53;0.50;96.80
61255;DHT22;47128;47.530;8.584;2023-02-28T05:02:19;0.50;96.70
61255;DHT22;47128;47.530;8.584;2023-02-28T05:04:46;0.50;97.10
61255;DHT22;47128;47.530;8.584;2023-02-28T05:07:11;0.40;97.20
61255;DHT22;47128;47.530;8.584;2023-02-28T05:09:37;0.50;97.90
61255;DHT22;47128;47.530;8.584;2023-02-28T05:12:03;0.60;97.70
61255;DHT22;47128;47.530;8.584;2023-02-28T05:14:28;0.50;96.90
61255;DHT22;47128;47.530;8.584;2023-02-28T05:16:54;0.60;96.80
61255;DHT22;47128;47.530;8.584;2023-02-28T05:19:19;0.60;96.90
61255;DHT22;47128;47.530;8.584;2023-02-28T05:21:50;0.60;96.50
61255;DHT22;47128;47.530;8.584;2023-02-28T05:24:16;0.60;96.80
61255;DHT22;47128;47.530;8.584;2023-02-28T05:26:48;0.60;96.40
61255;DHT22;47128;47.530;8.584;2023-02-28T05:29:14;0.60;96.60
61255;DHT22;47128;47.530;8.584;2023-02-28T05:31:39;0.50;96.90
61255;DHT22;47128;47.530;8.584;2023-02-28T05:34:05;0.50;97.00
61255;DHT22;47128;47.530;8.584;2023-02-28T05:36:31;0.50;96.40
61255;DHT22;47128;47.530;8.584;2023-02-28T05:38:57;0.60;96.60
61255;DHT22;47128;47.530;8.584;2023-02-28T05:41:22;0.50;96.60
61255;DHT22;47128;47.530;8.584;2023-02-28T05:43:48;0.40;96.80
61255;DHT22;47128;47.530;8.584;2023-02-28T05:46:14;0.50;96.90
61255;DHT22;47128;47.530;8.584;2023-02-28T05:48:40;0.50;96.70
61255;DHT22;47128;47.530;8.584;2023-02-28T05:51:07;0.50;96.80
61255;DHT22;47128;47.530;8.584;2023-02-28T05:56:36;0.60;96.70
61255;DHT22;47128;47.530;8.584;2023-02-28T05:59:05;0.50;96.60
61255;DHT22;47128;47.530;8.584;2023-02-28T06:04:34;0.50;97.10
61255;DHT22;47128;47.530;8.584;2023-02-28T06:06:59;0.50;96.50
61255;DHT22;47128;47.530;8.584;2023-02-28T06:18:34;0.60;96.30
61255;DHT22;47128;47.530;8.584;2023-02-28T06:20:59;0.50;96.50
61255;DHT22;47128;47.530;8.584;2023-02-28T06:23:25;0.60;96.90
61255;DHT22;47128;47.530;8.584;2023-02-28T06:25:50;0.50;96.30
61255;DHT22;47128;47.530;8.584;2023-02-28T06:28:18;0.50;96.50
61255;DHT22;47128;47.530;8.584;2023-02-28T06:30:43;0.50;96.50
61255;DHT22;47128;47.530;8.584;2023-02-28T06:33:09;0.40;96.50
61255;DHT22;47128;47.530;8.584;2023-02-28T06:35:49;0.40;96.60
61255;DHT22;47128;47.530;8.584;2023-02-28T06:41:18;0.50;96.50
61255;DHT22;47128;47.530;8.584;2023-02-28T06:46:48;0.60;96.00
61255;DHT22;47128;47.530;8.584;2023-02-28T06:49:14;0.60;96.00
61255;DHT22;47128;47.530;8.584;2023-02-28T06:51:41;0.60;96.00
61255;DHT22;47128;47.530;8.584;2023-02-28T06:54:07;0.60;96.30
61255;DHT22;47128;47.530;8.584;2023-02-28T06:56:35;0.50;96.50
61255;DHT22;47128;47.530;8.584;2023-02-28T06:59:01;0.60;96.50
61255;DHT22;47128;47.530;8.584;2023-02-28T07:04:34;0.50;96.20
61255;DHT22;47128;47.530;8.584;2023-02-28T07:07:08;0.60;96.20
61255;DHT22;47128;47.530;8.584;2023-02-28T07:09:34;0.50;96.50
61255;DHT22;47128;47.530;8.584;2023-02-28T07:15:04;0.70;95.90
61255;DHT22;47128;47.530;8.584;2023-02-28T07:20:28;0.60;95.90
61255;DHT22;47128;47.530;8.584;2023-02-28T07:25:58;0.60;95.80
61255;DHT22;47128;47.530;8.584;2023-02-28T07:28:24;0.60;95.80
61255;DHT22;47128;47.530;8.584;2023-02-28T07:30:50;0.60;96.10
61255;DHT22;47128;47.530;8.584;2023-02-28T07:33:16;0.60;95.80
61255;DHT22;47128;47.530;8.584;2023-02-28T07:35:41;0.70;96.10
61255;DHT22;47128;47.530;8.584;2023-02-28T07:41:19;0.80;95.60
61255;DHT22;47128;47.530;8.584;2023-02-28T07:47:00;1.00;95.20
61255;DHT22;47128;47.530;8.584;2023-02-28T07:52:31;1.00;95.20
61255;DHT22;47128;47.530;8.584;2023-02-28T07:54:57;0.90;95.10
61255;DHT22;47128;47.530;8.584;2023-02-28T07:57:23;0.80;95.40
61255;DHT22;47128;47.530;8.584;2023-02-28T07:59:48;0.90;95.40
61255;DHT22;47128;47.530;8.584;2023-02-28T08:02:18;1.00;95.50
61255;DHT22;47128;47.530;8.584;2023-02-28T08:04:44;1.00;94.80
61255;DHT22;47128;47.530;8.584;2023-02-28T08:07:10;1.00;94.90
61255;DHT22;47128;47.530;8.584;2023-02-28T08:12:41;0.90;95.60
61255;DHT22;47128;47.530;8.584;2023-02-28T08:18:10;0.90;95.30
61255;DHT22;47128;47.530;8.584;2023-02-28T08:20:36;1.00;95.20
61255;DHT22;47128;47.530;8.584;2023-02-28T08:23:02;1.00;95.20
61255;DHT22;47128;47.530;8.584;2023-02-28T08:25:28;1.10;95.10
61255;DHT22;47128;47.530;8.584;2023-02-28T08:27:54;1.10;95.10
61255;DHT22;47128;47.530;8.584;2023-02-28T08:30:20;1.00;95.00
61255;DHT22;47128;47.530;8.584;2023-02-28T08:32:46;1.00;95.20
61255;DHT22;47128;47.530;8.584;2023-02-28T08:35:12;1.10;94.90
61255;DHT22;47128;47.530;8.584;2023-02-28T08:37:37;1.10;94.90
61255;DHT22;47128;47.530;8.584;2023-02-28T08:40:03;1.10;94.70
61255;DHT22;47128;47.530;8.584;2023-02-28T08:42:29;1.20;94.90
61255;DHT22;47128;47.530;8.584;2023-02-28T08:44:55;1.10;94.60
61255;DHT22;47128;47.530;8.584;2023-02-28T08:47:21;1.20;94.70
61255;DHT22;47128;47.530;8.584;2023-02-28T08:49:48;1.20;94.70
61255;DHT22;47128;47.530;8.584;2023-02-28T08:52:14;1.10;94.50
61255;DHT22;47128;47.530;8.584;2023-02-28T08:54:41;1.20;95.00
61255;DHT22;47128;47.530;8.584;2023-02-28T08:57:20;1.20;94.90
61255;DHT22;47128;47.530;8.584;2023-02-28T08:59:47;1.30;94.90
61255;DHT22;47128;47.530;8.584;2023-02-28T09:02:14;1.40;94.80
61255;DHT22;47128;47.530;8.584;2023-02-28T09:07:42;1.50;94.30
61255;DHT22;47128;47.530;8.584;2023-02-28T09:10:10;1.50;94.10
61255;DHT22;47128;47.530;8.584;2023-02-28T09:12:42;1.50;93.70
61255;DHT22;47128;47.530;8.584;2023-02-28T09:21:14;1.30;93.70
61255;DHT22;47128;47.530;8.584;2023-02-28T09:23:43;1.30;93.80
61255;DHT22;47128;47.530;8.584;2023-02-28T09:26:16;1.30;93.90
61255;DHT22;47128;47.530;8.584;2023-02-28T09:28:42;1.30;93.90
61255;DHT22;47128;47.530;8.584;2023-02-28T09:31:12;1.40;93.80
61255;DHT22;47128;47.530;8.584;2023-02-28T09:33:38;1.40;93.50
61255;DHT22;47128;47.530;8.584;2023-02-28T09:36:05;1.40;93.60
61255;DHT22;47128;47.530;8.584;2023-02-28T09:47:43;1.70;93.20
61255;DHT22;47128;47.530;8.584;2023-02-28T09:55:57;1.60;92.70
61255;DHT22;47128;47.530;8.584;2023-02-28T09:58:47;1.70;92.50
61255;DHT22;47128;47.530;8.584;2023-02-28T10:01:16;1.60;92.30
61255;DHT22;47128;47.530;8.584;2023-02-28T10:03:50;1.60;92.50
61255;DHT22;47128;47.530;8.584;2023-02-28T10:06:20;1.60;92.80
61255;DHT22;47128;47.530;8.584;2023-02-28T10:09:00;1.50;93.00
61255;DHT22;47128;47.530;8.584;2023-02-28T10:11:27;1.40;93.30
61255;DHT22;47128;47.530;8.584;2023-02-28T10:13:54;1.50;93.50
61255;DHT22;47128;47.530;8.584;2023-02-28T10:16:37;1.40;93.20
61255;DHT22;47128;47.530;8.584;2023-02-28T10:21:36;1.50;93.30
61255;DHT22;47128;47.530;8.584;2023-02-28T10:26:59;1.40;93.50
61255;DHT22;47128;47.530;8.584;2023-02-28T10:29:27;1.40;93.50
61255;DHT22;47128;47.530;8.584;2023-02-28T10:31:55;1.50;93.40
61255;DHT22;47128;47.530;8.584;2023-02-28T10:34:21;1.50;93.30
61255;DHT22;47128;47.530;8.584;2023-02-28T10:36:47;1.50;93.20
61255;DHT22;47128;47.530;8.584;2023-02-28T10:41:59;1.30;93.60
61255;DHT22;47128;47.530;8.584;2023-02-28T10:44:25;1.20;93.30
61255;DHT22;47128;47.530;8.584;2023-02-28T10:46:51;1.30;93.50
61255;DHT22;47128;47.530;8.584;2023-02-28T10:49:21;1.40;93.70
61255;DHT22;47128;47.530;8.584;2023-02-28T10:51:49;1.40;93.50
61255;DHT22;47128;47.530;8.584;2023-02-28T10:54:22;1.40;93.50
61255;DHT22;47128;47.530;8.584;2023-02-28T10:59:34;1.50;93.50
61255;DHT22;47128;47.530;8.584;2023-02-28T11:02:00;1.50;93.30
61255;DHT22;47128;47.530;8.584;2023-02-28T11:09:39;1.40;93.90
61255;DHT22;47128;47.530;8.584;2023-02-28T11:12:19;1.50;93.50
61255;DHT22;47128;47.530;8.584;2023-02-28T11:14:47;1.40;93.30
61255;DHT22;47128;47.530;8.584;2023-02-28T11:26:08;1.60;93.30
61255;DHT22;47128;47.530;8.584;2023-02-28T11:29:02;1.50;93.00
61255;DHT22;47128;47.530;8.584;2023-02-28T11:31:29;1.50;92.80
61255;DHT22;47128;47.530;8.584;2023-02-28T11:33:55;1.60;92.80
61255;DHT22;47128;47.530;8.584;2023-02-28T11:39:25;1.70;92.80
61255;DHT22;47128;47.530;8.584;2023-02-28T11:44:27;1.80;92.60
61255;DHT22;47128;47.530;8.584;2023-02-28T11:47:03;1.80;92.70
61255;DHT22;47128;47.530;8.584;2023-02-28T11:52:30;1.70;92.80
61255;DHT22;47128;47.530;8.584;2023-02-28T12:05:30;1.70;92.70
61255;DHT22;47128;47.530;8.584;2023-02-28T12:13:34;1.90;92.80
61255;DHT22;47128;47.530;8.584;2023-02-28T12:22:25;2.00;92.40
61255;DHT22;47128;47.530;8.584;2023-02-28T12:27:23;2.00;92.40
61255;DHT22;47128;47.530;8.584;2023-02-28T12:29:52;2.10;92.10
61255;DHT22;47128;47.530;8.584;2023-02-28T12:32:26;2.10;92.10
61255;DHT22;47128;47.530;8.584;2023-02-28T12:34:55;2.10;92.10
61255;DHT22;47128;47.530;8.584;2023-02-28T12:37:27;2.20;92.00
61255;DHT22;47128;47.530;8.584;2023-02-28T12:39:59;2.10;92.40
61255;DHT22;47128;47.530;8.584;2023-02-28T12:42:27;1.90;92.20
61255;DHT22;47128;47.530;8.584;2023-02-28T12:44:56;1.90;92.20
61255;DHT22;47128;47.530;8.584;2023-02-28T12:47:23;1.80;92.60
61255;DHT22;47128;47.530;8.584;2023-02-28T12:50:07;1.80;92.60
61255;DHT22;47128;47.530;8.584;2023-02-28T12:55:29;1.80;92.40
61255;DHT22;47128;47.530;8.584;2023-02-28T13:00:40;1.90;92.70
61255;DHT22;47128;47.530;8.584;2023-02-28T13:11:22;1.90;92.60
61255;DHT22;47128;47.530;8.584;2023-02-28T13:13:51;1.80;92.90
61255;DHT22;47128;47.530;8.584;2023-02-28T13:16:22;1.70;92.90
61255;DHT22;47128;47.530;8.584;2023-02-28T13:18:47;1.70;92.60
61255;DHT22;47128;47.530;8.584;2023-02-28T13:32:30;1.70;93.40
61255;DHT22;47128;47.530;8.584;2023-02-28T13:35:12;1.70;93.20
61255;DHT22;47128;47.530;8.584;2023-02-28T13:40:42;1.80;93.10
61255;DHT22;47128;47.530;8.584;2023-02-28T13:46:12;1.70;93.50
61255;DHT22;47128;47.530;8.584;2023-02-28T13:48:38;1.80;93.40
61255;DHT22;47128;47.530;8.584;2023-02-28T13:51:27;1.80;93.40
61255;DHT22;47128;47.530;8.584;2023-02-28T13:54:00;1.70;93.60
61255;DHT22;47128;47.530;8.584;2023-02-28T13:56:40;1.70;93.90
61255;DHT22;47128;47.530;8.584;2023-02-28T13:59:31;1.70;93.70
61255;DHT22;47128;47.530;8.584;2023-02-28T14:05:19;1.80;93.70
61255;DHT22;47128;47.530;8.584;2023-02-28T14:14:05;2.00;93.30
61255;DHT22;47128;47.530;8.584;2023-02-28T14:22:44;1.90;93.50
61255;DHT22;47128;47.530;8.584;2023-02-28T14:28:58;2.00;93.30
61255;DHT22;47128;47.530;8.584;2023-02-28T14:37:30;1.80;93.60
61255;DHT22;47128;47.530;8.584;2023-02-28T14:48:55;1.90;93.60
61255;DHT22;47128;47.530;8.584;2023-02-28T14:54:06;1.90;93.40
61255;DHT22;47128;47.530;8.584;2023-02-28T14:56:50;1.90;93.70
61255;DHT22;47128;47.530;8.584;2023-02-28T15:05:28;1.90;93.60
61255;DHT22;47128;47.530;8.584;2023-02-28T15:16:32;2.00;93.60
61255;DHT22;47128;47.530;8.584;2023-02-28T15:18:59;2.00;93.50
61255;DHT22;47128;47.530;8.584;2023-02-28T15:29:57;1.90;93.50
61255;DHT22;47128;47.530;8.584;2023-02-28T15:38:32;1.90;93.90
61255;DHT22;47128;47.530;8.584;2023-02-28T15:49:27;1.80;93.80
61255;DHT22;47128;47.530;8.584;2023-02-28T15:51:53;1.80;93.90
61255;DHT22;47128;47.530;8.584;2023-02-28T15:57:17;2.00;93.80
61255;DHT22;47128;47.530;8.584;2023-02-28T16:00:02;2.00;93.60
61255;DHT22;47128;47.530;8.584;2023-02-28T16:02:51;2.00;93.70
61255;DHT22;47128;47.530;8.584;2023-02-28T16:05:29;2.00;93.80
61255;DHT22;47128;47.530;8.584;2023-02-28T16:08:06;2.00;93.70
61255;DHT22;47128;47.530;8.584;2023-02-28T16:11:04;2.00;93.40
61255;DHT22;47128;47.530;8.584;2023-02-28T16:16:33;2.00;93.50
61255;DHT22;47128;47.530;8.584;2023-02-28T16:18:59;2.00;93.90
61255;DHT22;47128;47.530;8.584;2023-02-28T16:21:24;2.00;93.80
61255;DHT22;47128;47.530;8.584;2023-02-28T16:23:53;1.90;93.80
61255;DHT22;47128;47.530;8.584;2023-02-28T16:26:21;1.90;93.90
61255;DHT22;47128;47.530;8.584;2023-02-28T16:28:56;1.90;94.10
61255;DHT22;47128;47.530;8.584;2023-02-28T16:31:22;1.90;94.30
61255;DHT22;47128;47.530;8.584;2023-02-28T16:36:50;1.70;94.30
61255;DHT22;47128;47.530;8.584;2023-02-28T16:39:16;1.70;94.70
61255;DHT22;47128;47.530;8.584;2023-02-28T16:44:29;1.70;94.90
61255;DHT22;47128;47.530;8.584;2023-02-28T16:46:56;1.70;94.60
61255;DHT22;47128;47.530;8.584;2023-02-28T16:49:22;1.60;94.60
61255;DHT22;47128;47.530;8.584;2023-02-28T16:51:48;1.60;94.80
61255;DHT22;47128;47.530;8.584;2023-02-28T16:57:26;1.50;94.90
61255;DHT22;47128;47.530;8.584;2023-02-28T17:06:04;1.40;95.10
61255;DHT22;47128;47.530;8.584;2023-02-28T17:08:30;1.50;95.20
61255;DHT22;47128;47.530;8.584;2023-02-28T17:10:57;1.40;95.40
61255;DHT22;47128;47.530;8.584;2023-02-28T17:13:25;1.40;95.40
61255;DHT22;47128;47.530;8.584;2023-02-28T17:15:51;1.40;95.50
61255;DHT22;47128;47.530;8.584;2023-02-28T17:18:31;1.40;95.60
61255;DHT22;47128;47.530;8.584;2023-02-28T17:20:59;1.40;95.50
61255;DHT22;47128;47.530;8.584;2023-02-28T17:23:27;1.30;95.80
61255;DHT22;47128;47.530;8.584;2023-02-28T17:25:53;1.30;95.90
61255;DHT22;47128;47.530;8.584;2023-02-28T17:28:31;1.30;96.10
61255;DHT22;47128;47.530;8.584;2023-02-28T17:30:57;1.30;96.20
61255;DHT22;47128;47.530;8.584;2023-02-28T17:36:23;1.20;96.40
61255;DHT22;47128;47.530;8.584;2023-02-28T17:38:50;1.20;96.80
61255;DHT22;47128;47.530;8.584;2023-02-28T17:44:17;1.20;96.60
61255;DHT22;47128;47.530;8.584;2023-02-28T17:46:43;1.20;96.70
61255;DHT22;47128;47.530;8.584;2023-02-28T17:49:17;1.30;96.40
61255;DHT22;47128;47.530;8.584;2023-02-28T17:51:43;1.20;96.40
61255;DHT22;47128;47.530;8.584;2023-02-28T17:57:05;1.20;96.50
61255;DHT22;47128;47.530;8.584;2023-02-28T18:02:33;1.20;96.50
61255;DHT22;47128;47.530;8.584;2023-02-28T18:05:07;1.30;96.40
61255;DHT22;47128;47.530;8.584;2023-02-28T18:07:33;1.20;96.50
61255;DHT22;47128;47.530;8.584;2023-02-28T18:10:06;1.20;96.70
61255;DHT22;47128;47.530;8.584;2023-02-28T18:12:32;1.20;96.60
61255;DHT22;47128;47.530;8.584;2023-02-28T18:14:58;1.20;96.80
61255;DHT22;47128;47.530;8.584;2023-02-28T18:17:23;1.10;97.00
61255;DHT22;47128;47.530;8.584;2023-02-28T18:19:49;1.10;97.20
61255;DHT22;47128;47.530;8.584;2023-02-28T18:22:15;1.10;97.00
61255;DHT22;47128;47.530;8.584;2023-02-28T18:24:41;1.10;97.00
61255;DHT22;47128;47.530;8.584;2023-02-28T18:27:07;1.10;97.20
61255;DHT22;47128;47.530;8.584;2023-02-28T18:29:50;1.10;97.50
61255;DHT22;47128;47.530;8.584;2023-02-28T18:32:16;1.00;97.40
61255;DHT22;47128;47.530;8.584;2023-02-28T18:34:42;1.00;97.40
61255;DHT22;47128;47.530;8.584;2023-02-28T18:37:09;1.00;97.60
61255;DHT22;47128;47.530;8.584;2023-02-28T18:39:36;1.00;97.70
61255;DHT22;47128;47.530;8.584;2023-02-28T18:42:02;1.00;97.60
61255;DHT22;47128;47.530;8.584;2023-02-28T18:44:28;1.10;97.50
61255;DHT22;47128;47.530;8.584;2023-02-28T18:46:53;1.00;97.80
61255;DHT22;47128;47.530;8.584;2023-02-28T18:52:11;1.00;97.80
61255;DHT22;47128;47.530;8.584;2023-02-28T18:54:40;1.00;97.80
61255;DHT22;47128;47.530;8.584;2023-02-28T18:57:06;0.90;97.90
61255;DHT22;47128;47.530;8.584;2023-02-28T18:59:31;0.90;98.20
61255;DHT22;47128;47.530;8.584;2023-02-28T19:01:57;1.00;97.80
61255;DHT22;47128;47.530;8.584;2023-02-28T19:07:25;0.90;98.00
61255;DHT22;47128;47.530;8.584;2023-02-28T19:09:50;1.00;97.90
61255;DHT22;47128;47.530;8.584;2023-02-28T19:12:16;1.00;97.80
61255;DHT22;47128;47.530;8.584;2023-02-28T19:14:55;1.00;98.00
61255;DHT22;47128;47.530;8.584;2023-02-28T19:17:21;1.00;98.00
61255;DHT22;47128;47.530;8.584;2023-02-28T19:19:46;1.00;97.90
61255;DHT22;47128;47.530;8.584;2023-02-28T19:24:56;0.80;98.50
61255;DHT22;47128;47.530;8.584;2023-02-28T19:27:22;0.70;98.90
61255;DHT22;47128;47.530;8.584;2023-02-28T19:29:49;0.60;99.20
61255;DHT22;47128;47.530;8.584;2023-02-28T19:32:15;0.50;99.60
61255;DHT22;47128;47.530;8.584;2023-02-28T19:34:47;0.40;99.80
61255;DHT22;47128;47.530;8.584;2023-02-28T19:37:13;0.30;99.90
61255;DHT22;47128;47.530;8.584;2023-02-28T19:39:38;0.30;99.90
61255;DHT22;47128;47.530;8.584;2023-02-28T19:45:16;0.20;99.90
61255;DHT22;47128;47.530;8.584;2023-02-28T19:47:41;0.10;99.90
61255;DHT22;47128;47.530;8.584;2023-02-28T19:50:07;0.10;99.90
61255;DHT22;47128;47.530;8.584;2023-02-28T19:52:34;0.10;99.90
61255;DHT22;47128;47.530;8.584;2023-02-28T19:55:00;0.10;99.90
61255;DHT22;47128;47.530;8.584;2023-02-28T20:00:13;0.10;99.90
61255;DHT22;47128;47.530;8.584;2023-02-28T20:02:40;0.10;99.90
61255;DHT22;47128;47.530;8.584;2023-02-28T20:05:08;0.00;99.90
61255;DHT22;47128;47.530;8.584;2023-02-28T20:07:34;0.00;99.90
61255;DHT22;47128;47.530;8.584;2023-02-28T20:10:00;-0.10;99.90
61255;DHT22;47128;47.530;8.584;2023-02-28T20:15:16;-0.10;99.90
61255;DHT22;47128;47.530;8.584;2023-02-28T20:17:43;-0.10;99.90
61255;DHT22;47128;47.530;8.584;2023-02-28T20:20:10;-0.10;99.90
61255;DHT22;47128;47.530;8.584;2023-02-28T20:22:41;0.00;99.90
61255;DHT22;47128;47.530;8.584;2023-02-28T20:25:07;0.00;99.90
61255;DHT22;47128;47.530;8.584;2023-02-28T20:27:33;0.00;99.90
61255;DHT22;47128;47.530;8.584;2023-02-28T20:29:59;-0.10;99.90
61255;DHT22;47128;47.530;8.584;2023-02-28T20:32:26;-0.10;99.90
61255;DHT22;47128;47.530;8.584;2023-02-28T20:34:51;-0.10;99.90
61255;DHT22;47128;47.530;8.584;2023-02-28T20:37:26;-0.20;99.90
61255;DHT22;47128;47.530;8.584;2023-02-28T20:39:52;-0.20;99.90
61255;DHT22;47128;47.530;8.584;2023-02-28T20:42:23;-0.20;99.90
61255;DHT22;47128;47.530;8.584;2023-02-28T20:44:48;-0.30;99.90
61255;DHT22;47128;47.530;8.584;2023-02-28T20:47:14;-0.30;99.90
61255;DHT22;47128;47.530;8.584;2023-02-28T20:49:51;-0.30;99.90
61255;DHT22;47128;47.530;8.584;2023-02-28T20:52:17;-0.30;99.90
61255;DHT22;47128;47.530;8.584;2023-02-28T20:54:49;-0.30;99.90
61255;DHT22;47128;47.530;8.584;2023-02-28T20:57:15;-0.30;99.90
61255;DHT22;47128;47.530;8.584;2023-02-28T20:59:40;-0.40;99.90
61255;DHT22;47128;47.530;8.584;2023-02-28T21:02:08;-0.40;99.90
61255;DHT22;47128;47.530;8.584;2023-02-28T21:04:34;-0.40;99.90
61255;DHT22;47128;47.530;8.584;2023-02-28T21:06:59;-0.40;99.90
61255;DHT22;47128;47.530;8.584;2023-02-28T21:09:24;-0.40;99.90
61255;DHT22;47128;47.530;8.584;2023-02-28T21:12:07;-0.40;99.90